createdAt,value
2018-08-30T00:02:23.161Z,15.63
2018-08-30T00:04:51.863Z,15.58
2018-08-30T00:07:20.462Z,15.54
2018-08-30T00:09:49.285Z,15.50
2018-08-30T00:12:18.001Z,15.44
2018-08-30T00:14:46.686Z,15.36
2018-08-30T00:17:16.039Z,15.31
2018-08-30T00:19:44.686Z,15.27
2018-08-30T00:22:13.405Z,15.24
2018-08-30T00:24:42.107Z,15.19
2018-08-30T00:27:10.681Z,15.15
2018-08-30T00:29:39.359Z,15.14
2018-08-30T00:32:08.050Z,15.14
2018-08-30T00:34:36.654Z,15.11
2018-08-30T00:37:05.238Z,15.08
2018-08-30T00:39:33.899Z,15.06
2018-08-30T00:42:02.534Z,15.10
2018-08-30T00:44:31.177Z,15.12
2018-08-30T00:46:59.907Z,15.10
2018-08-30T00:49:29.161Z,15.09
2018-08-30T00:51:57.978Z,15.11
2018-08-30T00:54:26.653Z,15.11
2018-08-30T00:56:55.267Z,15.08
2018-08-30T00:59:23.880Z,15.05
2018-08-30T01:01:53.782Z,15.03
2018-08-30T01:04:22.433Z,15.01
2018-08-30T01:06:51.145Z,14.97
2018-08-30T01:09:19.817Z,14.95
2018-08-30T01:11:51.361Z,14.94
2018-08-30T01:14:20.525Z,14.91
2018-08-30T01:16:49.254Z,14.91
2018-08-30T01:19:18.094Z,14.91
2018-08-30T01:21:46.789Z,14.86
2018-08-30T01:24:16.260Z,14.85
2018-08-30T01:26:45.545Z,14.85
2018-08-30T01:29:14.389Z,14.80
2018-08-30T01:31:43.093Z,14.74
2018-08-30T01:34:13.132Z,14.70
2018-08-30T01:36:43.393Z,14.68
2018-08-30T01:39:12.419Z,14.65
2018-08-30T01:41:42.501Z,14.64
2018-08-30T01:44:11.922Z,14.61
2018-08-30T01:46:40.611Z,14.63
2018-08-30T01:49:09.300Z,14.65
2018-08-30T01:51:38.051Z,14.64
2018-08-30T01:54:07.124Z,14.64
2018-08-30T01:56:36.004Z,14.62
2018-08-30T01:59:04.815Z,14.62
2018-08-30T02:01:33.423Z,14.61
2018-08-30T02:04:02.592Z,14.59
2018-08-30T02:06:31.209Z,14.59
2018-08-30T02:08:59.978Z,14.59
2018-08-30T02:11:28.967Z,14.56
2018-08-30T02:13:57.638Z,14.56
2018-08-30T02:16:26.673Z,14.54
2018-08-30T02:18:55.346Z,14.55
2018-08-30T02:21:25.081Z,14.50
2018-08-30T02:23:53.738Z,14.45
2018-08-30T02:26:22.424Z,14.44
2018-08-30T02:28:51.107Z,14.40
2018-08-30T02:31:19.804Z,14.36
2018-08-30T02:33:53.080Z,14.32
2018-08-30T02:36:21.962Z,14.30
2018-08-30T02:38:50.729Z,14.31
2018-08-30T02:41:19.425Z,14.28
2018-08-30T02:43:48.329Z,14.23
2018-08-30T02:46:17.061Z,14.20
2018-08-30T02:48:45.684Z,14.19
2018-08-30T02:51:14.281Z,14.16
2018-08-30T02:53:43.205Z,14.12
2018-08-30T02:56:11.868Z,14.05
2018-08-30T02:58:43.333Z,13.99
2018-08-30T03:01:12.450Z,13.98
2018-08-30T03:03:41.813Z,13.93
2018-08-30T03:06:10.502Z,13.85
2018-08-30T03:08:39.278Z,13.79
2018-08-30T03:11:09.036Z,13.74
2018-08-30T03:13:38.386Z,13.70
2018-08-30T03:16:07.177Z,13.69
2018-08-30T03:18:35.864Z,13.67
2018-08-30T03:21:04.554Z,13.65
2018-08-30T03:23:33.304Z,13.61
2018-08-30T03:26:02.091Z,13.58
2018-08-30T03:28:30.984Z,13.58
2018-08-30T03:30:59.849Z,13.57
2018-08-30T03:33:28.537Z,13.54
2018-08-30T03:35:57.292Z,13.53
2018-08-30T03:38:26.115Z,13.50
2018-08-30T03:40:55.549Z,13.47
2018-08-30T03:43:24.208Z,13.46
2018-08-30T03:45:52.908Z,13.44
2018-08-30T03:48:21.613Z,13.43
2018-08-30T03:50:50.238Z,13.42
2018-08-30T03:53:19.465Z,13.42
2018-08-30T03:55:48.141Z,13.41
2018-08-30T03:58:16.955Z,13.41
2018-08-30T04:00:45.663Z,13.40
2018-08-30T04:03:14.350Z,13.39
2018-08-30T04:05:43.217Z,13.38
2018-08-30T04:08:11.882Z,13.38
2018-08-30T04:10:40.728Z,13.39
2018-08-30T04:13:09.413Z,13.41
2018-08-30T04:15:38.142Z,13.42
2018-08-30T04:18:08.484Z,13.45
2018-08-30T04:20:37.170Z,13.46
2018-08-30T04:23:06.187Z,13.49
2018-08-30T04:25:35.622Z,13.50
2018-08-30T04:28:04.241Z,13.52
2018-08-30T04:30:32.909Z,13.54
2018-08-30T04:33:01.544Z,13.57
2018-08-30T04:35:30.184Z,13.60
2018-08-30T04:37:58.890Z,13.62
2018-08-30T04:40:27.906Z,13.70
2018-08-30T04:42:56.609Z,13.74
2018-08-30T04:45:25.203Z,13.80
2018-08-30T04:47:53.951Z,13.87
2018-08-30T04:50:22.685Z,13.91
2018-08-30T04:52:51.639Z,13.96
2018-08-30T04:55:20.865Z,14.03
2018-08-30T04:57:49.447Z,14.10
2018-08-30T05:00:18.124Z,14.16
2018-08-30T05:02:46.753Z,14.20
2018-08-30T05:05:15.422Z,14.24
2018-08-30T05:07:45.065Z,14.30
2018-08-30T05:10:13.793Z,14.38
2018-08-30T05:12:43.438Z,14.44
2018-08-30T05:15:12.707Z,14.51
2018-08-30T05:17:41.946Z,14.60
2018-08-30T05:20:10.729Z,14.70
2018-08-30T05:22:39.341Z,14.78
2018-08-30T05:25:08.114Z,14.89
2018-08-30T05:27:36.706Z,15.00
2018-08-30T05:30:05.410Z,15.11
2018-08-30T05:32:34.011Z,15.25
2018-08-30T05:35:02.697Z,15.37
2018-08-30T05:37:33.384Z,15.49
2018-08-30T05:40:02.116Z,15.60
2018-08-30T05:42:30.911Z,15.70
2018-08-30T05:45:00.589Z,15.80
2018-08-30T05:47:31.429Z,15.89
2018-08-30T05:50:00.120Z,15.98
2018-08-30T05:52:28.821Z,16.05
2018-08-30T05:54:57.541Z,16.14
2018-08-30T05:57:26.211Z,16.23
2018-08-30T05:59:54.897Z,16.33
2018-08-30T06:02:23.570Z,16.43
2018-08-30T06:04:52.566Z,16.50
2018-08-30T06:07:21.347Z,16.56
2018-08-30T06:09:50.763Z,16.65
2018-08-30T06:12:19.442Z,16.74
2018-08-30T06:14:48.049Z,16.86
2018-08-30T06:17:16.656Z,16.98
2018-08-30T06:19:45.435Z,17.07
2018-08-30T06:22:14.047Z,17.16
2018-08-30T06:24:42.625Z,17.28
2018-08-30T06:27:11.235Z,17.40
2018-08-30T06:29:39.974Z,17.51
2018-08-30T06:32:08.709Z,17.67
2018-08-30T06:34:37.391Z,17.79
2018-08-30T06:37:06.529Z,17.91
2018-08-30T06:39:35.380Z,18.05
2018-08-30T06:42:04.159Z,18.17
2018-08-30T06:44:32.845Z,18.23
2018-08-30T06:47:01.667Z,18.28
2018-08-30T06:49:30.309Z,18.36
2018-08-30T06:51:59.039Z,18.43
2018-08-30T06:54:27.694Z,18.51
2018-08-30T06:56:56.437Z,18.63
2018-08-30T06:59:25.157Z,18.73
2018-08-30T07:01:54.009Z,18.87
2018-08-30T07:04:23.004Z,18.98
2018-08-30T07:06:51.665Z,19.08
2018-08-30T07:09:20.545Z,19.15
2018-08-30T07:11:49.196Z,19.29
2018-08-30T07:14:18.013Z,19.40
2018-08-30T07:16:47.657Z,19.54
2018-08-30T07:19:16.366Z,19.69
2018-08-30T07:21:45.034Z,19.85
2018-08-30T07:24:13.812Z,20.01
2018-08-30T07:26:43.716Z,20.15
2018-08-30T07:29:12.503Z,20.30
2018-08-30T07:31:41.233Z,20.40
2018-08-30T07:34:10.154Z,20.60
2018-08-30T07:36:38.897Z,20.74
2018-08-30T07:39:10.661Z,20.88
2018-08-30T07:41:40.002Z,21.00
2018-08-30T07:44:09.365Z,21.08
2018-08-30T07:46:38.210Z,21.19
2018-08-30T07:49:07.681Z,21.26
2018-08-30T07:51:36.297Z,21.40
2018-08-30T07:54:05.311Z,21.47
2018-08-30T07:56:33.912Z,21.64
2018-08-30T07:59:02.630Z,21.75
2018-08-30T08:01:31.498Z,21.76
2018-08-30T08:04:02.680Z,21.81
2018-08-30T08:06:31.821Z,21.88
2018-08-30T08:09:00.481Z,22.00
2018-08-30T08:11:29.374Z,22.14
2018-08-30T08:13:58.006Z,22.30
2018-08-30T08:16:28.102Z,22.46
2018-08-30T08:18:57.048Z,22.59
2018-08-30T08:21:25.820Z,22.76
2018-08-30T08:23:54.590Z,22.94
2018-08-30T08:26:23.612Z,23.07
2018-08-30T08:28:52.475Z,23.18
2018-08-30T08:31:21.158Z,23.25
2018-08-30T08:34:50.286Z,23.32
2018-08-30T08:37:18.957Z,23.34
2018-08-30T08:39:48.553Z,23.45
2018-08-30T08:42:18.149Z,23.57
2018-08-30T08:44:46.738Z,23.64
2018-08-30T08:47:15.738Z,23.74
2018-08-30T08:49:44.549Z,23.75
2018-08-30T08:52:13.224Z,23.76
2018-08-30T08:54:41.833Z,23.78
2018-08-30T08:57:10.422Z,23.89
2018-08-30T08:59:39.197Z,24.03
2018-08-30T09:02:08.313Z,24.10
2018-08-30T09:04:37.106Z,24.17
2018-08-30T09:07:06.444Z,24.30
2018-08-30T09:09:36.275Z,24.38
2018-08-30T09:12:04.969Z,24.50
2018-08-30T09:14:33.707Z,24.63
2018-08-30T09:17:02.263Z,24.75
2018-08-30T09:19:30.976Z,24.84
2018-08-30T09:21:59.806Z,24.86
2018-08-30T09:24:28.554Z,24.89
2018-08-30T09:26:57.338Z,24.83
2018-08-30T09:29:25.830Z,24.91
2018-08-30T09:31:54.521Z,24.99
2018-08-30T09:34:23.432Z,25.06
2018-08-30T09:36:52.287Z,25.04
2018-08-30T09:39:22.101Z,25.06
2018-08-30T09:41:50.754Z,25.20
2018-08-30T09:44:19.493Z,25.34
2018-08-30T09:46:48.226Z,25.42
2018-08-30T09:49:17.000Z,25.55
2018-08-30T09:51:46.115Z,25.62
2018-08-30T09:54:14.989Z,25.67
2018-08-30T09:56:43.693Z,25.61
2018-08-30T09:59:12.384Z,25.68
2018-08-30T10:01:48.090Z,25.78
2018-08-30T10:04:19.964Z,25.86
2018-08-30T10:06:49.313Z,25.66
2018-08-30T10:09:18.777Z,25.70
2018-08-30T10:11:48.574Z,25.68
2018-08-30T10:14:17.683Z,25.66
2018-08-30T10:16:46.429Z,25.66
2018-08-30T10:19:15.653Z,25.82
2018-08-30T10:21:44.638Z,26.01
2018-08-30T10:24:14.127Z,26.07
2018-08-30T10:26:42.976Z,26.18
2018-08-30T10:29:11.667Z,26.28
2018-08-30T10:31:40.556Z,26.33
2018-08-30T10:34:09.211Z,26.47
2018-08-30T10:36:37.998Z,26.64
2018-08-30T10:39:08.315Z,26.88
2018-08-30T10:41:37.793Z,27.00
2018-08-30T10:44:06.722Z,27.15
2018-08-30T10:46:35.686Z,27.27
2018-08-30T10:49:04.481Z,27.35
2018-08-30T10:51:34.214Z,27.29
2018-08-30T10:54:02.995Z,27.36
2018-08-30T10:56:32.799Z,27.39
2018-08-30T10:59:01.662Z,27.51
2018-08-30T11:01:30.397Z,27.82
2018-08-30T11:03:59.421Z,28.00
2018-08-30T11:06:29.265Z,28.18
2018-08-30T11:08:58.133Z,28.23
2018-08-30T11:11:26.934Z,28.54
2018-08-30T11:13:55.661Z,28.91
2018-08-30T11:16:24.405Z,29.03
2018-08-30T11:18:53.107Z,29.17
2018-08-30T11:21:21.952Z,29.67
2018-08-30T11:23:50.707Z,30.19
2018-08-30T11:26:19.554Z,30.08
2018-08-30T11:28:48.325Z,30.05
2018-08-30T11:31:16.933Z,29.94
2018-08-30T11:33:45.829Z,29.87
2018-08-30T11:36:14.541Z,29.88
2018-08-30T11:38:43.290Z,30.03
2018-08-30T11:41:12.166Z,30.57
2018-08-30T11:43:41.702Z,30.68
2018-08-30T11:46:10.506Z,30.28
2018-08-30T11:48:39.296Z,30.33
2018-08-30T11:51:08.074Z,30.68
2018-08-30T11:53:36.704Z,31.29
2018-08-30T11:56:05.970Z,31.32
2018-08-30T11:58:34.748Z,31.49
2018-08-30T12:01:03.464Z,31.77
2018-08-30T12:03:32.663Z,31.87
2018-08-30T12:06:02.600Z,31.34
2018-08-30T12:08:31.457Z,30.68
2018-08-30T12:11:00.551Z,30.06
2018-08-30T12:13:30.098Z,29.85
2018-08-30T12:15:58.770Z,29.91
2018-08-30T12:18:27.355Z,29.90
2018-08-30T12:20:56.134Z,29.58
2018-08-30T12:23:26.999Z,29.17
2018-08-30T12:25:55.665Z,28.65
2018-08-30T12:28:24.456Z,28.30
2018-08-30T12:30:53.178Z,28.05
2018-08-30T12:33:21.850Z,27.91
2018-08-30T12:35:51.590Z,27.82
2018-08-30T12:38:20.734Z,27.83
2018-08-30T12:40:49.627Z,27.89
2018-08-30T12:43:18.220Z,27.98
2018-08-30T12:45:46.818Z,28.06
2018-08-30T12:48:15.531Z,28.16
2018-08-30T12:50:44.579Z,28.26
2018-08-30T12:53:13.308Z,28.33
2018-08-30T12:55:42.945Z,28.54
2018-08-30T12:58:12.628Z,28.73
2018-08-30T13:00:41.171Z,28.81
2018-08-30T13:03:09.968Z,28.73
2018-08-30T13:05:38.834Z,28.60
2018-08-30T13:08:07.568Z,28.52
2018-08-30T13:10:36.529Z,28.42
2018-08-30T13:13:05.216Z,28.31
2018-08-30T13:15:33.858Z,28.21
2018-08-30T13:18:02.501Z,27.89
2018-08-30T13:20:31.876Z,27.63
2018-08-30T13:23:00.888Z,27.39
2018-08-30T13:25:29.694Z,27.18
2018-08-30T13:27:58.475Z,27.00
2018-08-30T13:30:27.437Z,25.78
2018-08-30T13:32:56.060Z,25.12
2018-08-30T13:35:24.861Z,24.64
2018-08-30T13:37:53.678Z,24.03
2018-08-30T13:40:22.499Z,23.80
2018-08-30T13:42:51.258Z,23.68
2018-08-30T13:45:20.457Z,23.43
2018-08-30T13:47:50.166Z,23.29
2018-08-30T13:50:18.929Z,23.21
2018-08-30T13:52:47.807Z,23.09
2018-08-30T13:55:16.359Z,23.03
2018-08-30T13:57:45.307Z,23.07
2018-08-30T14:00:14.119Z,23.13
2018-08-30T14:02:42.619Z,23.16
2018-08-30T14:05:13.660Z,23.08
2018-08-30T14:07:42.357Z,22.97
2018-08-30T14:10:10.895Z,22.79
2018-08-30T14:12:39.604Z,22.72
2018-08-30T14:15:08.516Z,22.61
2018-08-30T14:17:36.806Z,22.48
2018-08-30T14:20:07.043Z,22.40
2018-08-30T14:22:36.703Z,22.43
2018-08-30T14:25:05.681Z,22.44
2018-08-30T14:27:34.753Z,22.45
2018-08-30T14:30:03.592Z,22.45
2018-08-30T14:32:32.339Z,22.42
2018-08-30T14:35:01.109Z,22.39
2018-08-30T14:37:30.039Z,22.33
2018-08-30T14:39:59.391Z,22.28
2018-08-30T14:42:28.085Z,22.26
2018-08-30T14:44:56.801Z,22.21
2018-08-30T14:47:26.346Z,22.13
2018-08-30T14:49:55.125Z,22.07
2018-08-30T14:52:24.606Z,21.86
2018-08-30T14:54:53.333Z,21.46
2018-08-30T14:57:22.166Z,21.06
2018-08-30T14:59:51.157Z,20.82
2018-08-30T15:02:20.082Z,20.72
2018-08-30T15:04:48.705Z,20.64
2018-08-30T15:07:18.485Z,20.52
2018-08-30T15:09:48.398Z,20.47
2018-08-30T15:12:17.712Z,20.45
2018-08-30T15:14:47.599Z,20.45
2018-08-30T15:17:16.697Z,20.45
2018-08-30T15:19:48.010Z,20.44
2018-08-30T15:22:16.676Z,20.46
2018-08-30T15:24:45.366Z,20.48
2018-08-30T15:27:14.153Z,20.50
2018-08-30T15:29:42.752Z,20.51
2018-08-30T15:32:11.476Z,20.53
2018-08-30T15:34:40.178Z,20.60
2018-08-30T15:37:09.118Z,20.58
2018-08-30T15:39:37.964Z,20.50
2018-08-30T15:42:06.728Z,20.51
2018-08-30T15:44:35.422Z,20.49
2018-08-30T15:47:04.225Z,20.47
2018-08-30T15:49:32.950Z,20.41
2018-08-30T15:52:01.654Z,20.32
2018-08-30T15:54:31.063Z,20.25
2018-08-30T15:57:00.458Z,20.18
2018-08-30T15:59:29.354Z,20.14
2018-08-30T16:01:58.665Z,20.07
2018-08-30T16:04:28.342Z,20.02
2018-08-30T16:06:56.962Z,19.97
2018-08-30T16:09:25.670Z,19.94
2018-08-30T16:11:54.429Z,19.92
2018-08-30T16:14:23.115Z,19.91
2018-08-30T16:16:51.928Z,19.90
2018-08-30T16:19:20.570Z,19.91
2018-08-30T16:21:49.291Z,19.81
2018-08-30T16:24:18.033Z,19.71
2018-08-30T16:26:46.825Z,19.59
2018-08-30T16:29:16.165Z,19.53
2018-08-30T16:31:45.356Z,19.47
2018-08-30T16:34:14.154Z,19.42
2018-08-30T16:36:42.835Z,19.32
2018-08-30T16:39:12.284Z,19.24
2018-08-30T16:41:41.215Z,19.16
2018-08-30T16:44:10.418Z,19.08
2018-08-30T16:46:40.648Z,19.03
2018-08-30T16:49:09.387Z,18.98
2018-08-30T16:51:38.022Z,18.94
2018-08-30T16:54:06.832Z,18.93
2018-08-30T16:56:35.750Z,18.92
2018-08-30T16:59:04.541Z,18.91
2018-08-30T17:01:33.102Z,18.90
2018-08-30T17:04:02.676Z,18.88
2018-08-30T17:06:31.329Z,18.86
2018-08-30T17:08:59.984Z,18.85
2018-08-30T17:11:28.768Z,18.81
2018-08-30T17:13:58.378Z,18.80
2018-08-30T17:16:28.300Z,18.79
2018-08-30T17:19:02.401Z,18.78
2018-08-30T17:21:32.023Z,18.77
2018-08-30T17:24:01.233Z,18.76
2018-08-30T17:26:30.023Z,18.75
2018-08-30T17:28:58.877Z,18.76
2018-08-30T17:31:27.608Z,18.77
2018-08-30T17:33:56.518Z,18.76
2018-08-30T17:36:25.384Z,18.74
2018-08-30T17:38:54.161Z,18.68
2018-08-30T17:41:22.877Z,18.63
2018-08-30T17:43:51.545Z,18.58
2018-08-30T17:46:21.498Z,18.53
2018-08-30T17:48:51.382Z,18.47
2018-08-30T17:51:19.997Z,18.41
2018-08-30T17:53:49.112Z,18.36
2018-08-30T17:56:17.893Z,18.31
2018-08-30T17:58:46.892Z,18.29
2018-08-30T18:01:15.715Z,18.28
2018-08-30T18:03:44.459Z,18.26
2018-08-30T18:06:13.167Z,18.24
2018-08-30T18:08:41.941Z,18.24
2018-08-30T18:11:11.650Z,18.22
2018-08-30T18:13:40.353Z,18.19
2018-08-30T18:16:09.054Z,18.15
2018-08-30T18:18:37.806Z,18.12
2018-08-30T18:21:06.409Z,18.10
2018-08-30T18:23:35.111Z,18.08
2018-08-30T18:26:03.750Z,18.06
2018-08-30T18:28:32.495Z,18.04
2018-08-30T18:31:01.403Z,18.02
2018-08-30T18:33:30.121Z,18.01
2018-08-30T18:35:59.596Z,18.02
2018-08-30T18:38:28.418Z,18.04
2018-08-30T18:40:57.426Z,18.09
2018-08-30T18:43:27.929Z,18.11
2018-08-30T18:45:56.821Z,18.15
2018-08-30T18:48:25.909Z,18.20
2018-08-30T18:50:54.847Z,18.19
2018-08-30T18:53:23.704Z,18.20
2018-08-30T18:55:52.478Z,18.20
2018-08-30T18:58:21.743Z,18.21
2018-08-30T19:00:50.593Z,18.20
2018-08-30T19:03:19.395Z,18.18
2018-08-30T19:05:48.388Z,18.18
2018-08-30T19:08:17.735Z,18.16
2018-08-30T19:10:46.435Z,18.14
2018-08-30T19:13:15.506Z,18.14
2018-08-30T19:15:50.519Z,18.11
2018-08-30T19:18:24.530Z,18.08
2018-08-30T19:20:53.223Z,18.05
2018-08-30T19:23:22.282Z,18.04
2018-08-30T19:25:51.419Z,18.01
2018-08-30T19:28:20.726Z,17.99
2018-08-30T19:30:49.607Z,17.98
2018-08-30T19:33:18.478Z,17.98
2018-08-30T19:35:52.926Z,17.96
2018-08-30T19:38:21.891Z,17.95
2018-08-30T19:40:56.767Z,17.92
2018-08-30T19:43:25.491Z,17.90
2018-08-30T19:45:56.027Z,17.86
2018-08-30T19:48:24.770Z,17.84
2018-08-30T19:50:53.701Z,17.80
2018-08-30T19:53:24.334Z,17.75
2018-08-30T19:55:53.015Z,17.72
2018-08-30T19:58:21.901Z,17.69
2018-08-30T20:00:50.783Z,17.67
2018-08-30T20:03:19.578Z,17.64
2018-08-30T20:05:48.937Z,17.64
2018-08-30T20:08:17.694Z,17.62
2018-08-30T20:10:46.434Z,17.63
2018-08-30T20:13:15.233Z,17.61
2018-08-30T20:15:43.956Z,17.59
2018-08-30T20:18:12.938Z,17.59
2018-08-30T20:20:42.526Z,17.57
2018-08-30T20:23:11.415Z,17.56
2018-08-30T20:25:40.521Z,17.55
2018-08-30T20:28:09.333Z,17.54
2018-08-30T20:30:39.169Z,17.52
2018-08-30T20:33:09.945Z,17.50
2018-08-30T20:35:40.445Z,17.49
2018-08-30T20:38:09.210Z,17.47
2018-08-30T20:40:37.913Z,17.44
2018-08-30T20:43:07.610Z,17.41
2018-08-30T20:45:36.218Z,17.38
2018-08-30T20:48:04.920Z,17.37
2018-08-30T20:50:33.610Z,17.34
2018-08-30T20:53:02.378Z,17.34
2018-08-30T20:55:31.150Z,17.31
2018-08-30T20:57:59.952Z,17.30
2018-08-30T21:00:29.592Z,17.28
2018-08-30T21:02:58.306Z,17.26
2018-08-30T21:05:27.308Z,17.23
2018-08-30T21:07:56.030Z,17.19
2018-08-30T21:10:24.673Z,17.17
2018-08-30T21:12:53.469Z,17.17
2018-08-30T21:15:22.298Z,17.13
2018-08-30T21:17:50.961Z,17.12
2018-08-30T21:20:19.766Z,17.10
2018-08-30T21:22:48.505Z,17.09
2018-08-30T21:25:17.112Z,17.08
2018-08-30T21:27:46.080Z,17.07
2018-08-30T21:30:14.610Z,17.04
2018-08-30T21:32:43.405Z,17.03
2018-08-30T21:35:12.062Z,17.02
2018-08-30T21:37:40.795Z,17.01
2018-08-30T21:40:10.545Z,16.99
2018-08-30T21:42:40.557Z,16.97
2018-08-30T21:45:09.326Z,16.93
2018-08-30T21:47:38.153Z,16.89
2018-08-30T21:50:07.124Z,16.86
2018-08-30T21:52:36.850Z,16.82
2018-08-30T21:55:06.674Z,16.79
2018-08-30T21:57:36.534Z,16.74
2018-08-30T22:00:06.277Z,16.70
2018-08-30T22:02:35.051Z,16.67
2018-08-30T22:05:03.756Z,16.61
2018-08-30T22:07:33.825Z,16.57
2018-08-30T22:10:02.603Z,16.50
2018-08-30T22:12:31.286Z,16.46
2018-08-30T22:14:59.974Z,16.39
2018-08-30T22:17:28.779Z,16.36
2018-08-30T22:19:57.358Z,16.32
2018-08-30T22:22:26.109Z,16.29
2018-08-30T22:24:54.941Z,16.30
2018-08-30T22:27:23.811Z,16.27
2018-08-30T22:29:52.570Z,16.27
2018-08-30T22:32:21.162Z,16.28
2018-08-30T22:34:49.966Z,16.27
2018-08-30T22:37:19.527Z,16.26
2018-08-30T22:39:48.250Z,16.26
2018-08-30T22:42:17.021Z,16.27
2018-08-30T22:44:45.696Z,16.27
2018-08-30T22:47:14.401Z,16.27
2018-08-30T22:49:44.139Z,16.26
2018-08-30T22:52:12.826Z,16.25
2018-08-30T22:54:41.859Z,16.22
2018-08-30T22:57:10.615Z,16.21
2018-08-30T22:59:39.269Z,16.19
2018-08-30T23:02:08.125Z,16.17
2018-08-30T23:04:39.052Z,16.13
2018-08-30T23:07:07.747Z,16.12
2018-08-30T23:09:36.379Z,16.10
2018-08-30T23:12:05.326Z,16.09
2018-08-30T23:14:35.017Z,16.08
2018-08-30T23:17:04.544Z,16.06
2018-08-30T23:19:33.766Z,16.03
2018-08-30T23:22:02.675Z,16.02
2018-08-30T23:24:31.358Z,16.00
2018-08-30T23:27:00.429Z,16.01
2018-08-30T23:29:29.181Z,16.02
2018-08-30T23:31:57.925Z,16.01
2018-08-30T23:34:26.811Z,16.00
2018-08-30T23:36:55.562Z,15.95
2018-08-30T23:39:24.300Z,15.92
2018-08-30T23:41:53.200Z,15.89
2018-08-30T23:44:21.933Z,15.85
2018-08-30T23:46:50.637Z,15.82
2018-08-30T23:49:19.468Z,15.81
2018-08-30T23:51:48.362Z,15.77
2018-08-30T23:54:17.096Z,15.70
2018-08-30T23:56:45.951Z,15.65
2018-08-30T23:59:26.546Z,15.61
